RYR30NU LECH-EGSS
Flight info
| Callsign | RYR30NU |
|---|---|
| Flight time | 1h 56m |
| Altitude | 36000 |
| Route | MATEX Z475 OSLAP Y90 USKAR N863 GIROM DCT AGN DCT SECHE DCT UVELI DCT CNA DCT TUPAR UN861 DIKRO UM185 ADLOG M185 TELTU |
| Aircraft | B738/M-SDE2E3FGHIRWXY/LB1 |
Departure
| Time | 2026-05-07 16:58 |
|---|---|
| Airport | Castellón-Costa Azahar Airport (LECH) |
Arrival
| Time | 2026-05-07 18:54 |
|---|---|
| Airport | London Stansted Airport (EGSS) |
| Time | Latitude | Longitude | Altitude | Speed | Heading |
|---|---|---|---|---|---|
| 2026-05-07 16:36 | 40.20577 | 0.06554 | 1189 ft | 0 kts | 147° |
| 2026-05-07 16:52 | 40.20580 | 0.06551 | 1189 ft | 3 kts | 147° |
| 2026-05-07 16:52 | 40.20603 | 0.06532 | 1189 ft | 4 kts | 147° |
| 2026-05-07 16:52 | 40.20626 | 0.06513 | 1189 ft | 4 kts | 148° |
| 2026-05-07 16:53 | 40.20640 | 0.06502 | 1189 ft | 4 kts | 223° |
| 2026-05-07 16:53 | 40.20651 | 0.06522 | 1189 ft | 4 kts | 237° |
| 2026-05-07 16:53 | 40.20656 | 0.06532 | 1189 ft | 1 kts | 237° |
| 2026-05-07 16:56 | 40.20652 | 0.06525 | 1189 ft | 4 kts | 237° |
| 2026-05-07 16:56 | 40.20640 | 0.06463 | 1189 ft | 9 kts | 284° |
| 2026-05-07 16:56 | 40.20663 | 0.06253 | 1189 ft | 17 kts | 237° |
| 2026-05-07 16:57 | 40.20652 | 0.06136 | 1189 ft | 13 kts | 307° |
| 2026-05-07 16:57 | 40.20725 | 0.06068 | 1189 ft | 13 kts | 329° |
| 2026-05-07 16:57 | 40.20807 | 0.06123 | 1189 ft | 19 kts | 57° |
| 2026-05-07 16:57 | 40.20952 | 0.06419 | 1189 ft | 74 kts | 57° |
| 2026-05-07 16:58 | 40.21364 | 0.07257 | 1190 ft | 143 kts | 58° |
| 2026-05-07 16:58 | 40.21967 | 0.08533 | 1528 ft | 172 kts | 59° |
| 2026-05-07 16:58 | 40.22629 | 0.09870 | 2333 ft | 186 kts | 58° |
| 2026-05-07 16:58 | 40.23379 | 0.11359 | 2929 ft | 209 kts | 57° |
| 2026-05-07 16:59 | 40.24223 | 0.13053 | 3189 ft | 236 kts | 58° |
| 2026-05-07 16:59 | 40.25141 | 0.14901 | 3785 ft | 245 kts | 57° |
| 2026-05-07 16:59 | 40.26084 | 0.16791 | 4530 ft | 253 kts | 57° |
| 2026-05-07 16:59 | 40.27095 | 0.18650 | 5525 ft | 249 kts | 43° |
| 2026-05-07 17:00 | 40.28575 | 0.19783 | 6376 ft | 249 kts | 12° |
| 2026-05-07 17:00 | 40.30291 | 0.19854 | 7158 ft | 249 kts | 346° |
| 2026-05-07 17:00 | 40.31925 | 0.19131 | 7979 ft | 249 kts | 336° |
| 2026-05-07 17:00 | 40.33536 | 0.18231 | 8787 ft | 253 kts | 334° |
| 2026-05-07 17:01 | 40.35162 | 0.17323 | 9628 ft | 256 kts | 340° |
| 2026-05-07 17:01 | 40.36963 | 0.17136 | 10277 ft | 271 kts | 6° |
| 2026-05-07 17:01 | 40.38865 | 0.17873 | 10507 ft | 299 kts | 18° |
| 2026-05-07 17:01 | 40.40887 | 0.18905 | 10718 ft | 325 kts | 19° |
| 2026-05-07 17:02 | 40.43032 | 0.20030 | 11242 ft | 337 kts | 19° |
| 2026-05-07 17:02 | 40.45199 | 0.21161 | 11973 ft | 341 kts | 19° |
| 2026-05-07 17:02 | 40.47423 | 0.22307 | 12760 ft | 345 kts | 19° |
| 2026-05-07 17:02 | 40.49670 | 0.23451 | 13521 ft | 349 kts | 19° |
| 2026-05-07 17:03 | 40.51954 | 0.24606 | 14223 ft | 354 kts | 19° |
| 2026-05-07 17:03 | 40.54264 | 0.25772 | 14900 ft | 358 kts | 19° |
| 2026-05-07 17:03 | 40.56593 | 0.26996 | 15569 ft | 363 kts | 22° |
| 2026-05-07 17:03 | 40.58882 | 0.28466 | 16233 ft | 369 kts | 25° |
| 2026-05-07 17:04 | 40.61160 | 0.30066 | 16881 ft | 374 kts | 26° |
| 2026-05-07 17:04 | 40.63461 | 0.31717 | 17515 ft | 379 kts | 25° |
| 2026-05-07 17:04 | 40.65790 | 0.33383 | 18145 ft | 384 kts | 25° |
| 2026-05-07 17:04 | 40.68158 | 0.35062 | 18702 ft | 389 kts | 25° |
| 2026-05-07 17:05 | 40.70557 | 0.36748 | 19255 ft | 392 kts | 24° |
| 2026-05-07 17:05 | 40.72980 | 0.38441 | 19828 ft | 396 kts | 24° |
| 2026-05-07 17:05 | 40.75430 | 0.40148 | 20377 ft | 400 kts | 24° |
| 2026-05-07 17:05 | 40.77910 | 0.41871 | 20907 ft | 405 kts | 24° |
| 2026-05-07 17:06 | 40.80417 | 0.43614 | 21423 ft | 410 kts | 24° |
| 2026-05-07 17:06 | 40.82952 | 0.45378 | 21950 ft | 414 kts | 24° |
| 2026-05-07 17:06 | 40.85507 | 0.47157 | 22454 ft | 418 kts | 24° |
| 2026-05-07 17:06 | 40.88095 | 0.48962 | 22968 ft | 422 kts | 24° |
| 2026-05-07 17:07 | 40.90708 | 0.50785 | 23458 ft | 427 kts | 23° |
| 2026-05-07 17:07 | 40.93351 | 0.52631 | 23878 ft | 431 kts | 23° |
| 2026-05-07 17:07 | 40.96009 | 0.54491 | 24327 ft | 434 kts | 23° |
| 2026-05-07 17:07 | 40.98688 | 0.56367 | 24775 ft | 437 kts | 24° |
| 2026-05-07 17:08 | 41.01384 | 0.58256 | 25193 ft | 440 kts | 24° |
| 2026-05-07 17:08 | 41.04098 | 0.60160 | 25590 ft | 444 kts | 24° |
| 2026-05-07 17:08 | 41.06839 | 0.62084 | 25992 ft | 447 kts | 24° |
| 2026-05-07 17:08 | 41.09596 | 0.64021 | 26394 ft | 450 kts | 24° |
| 2026-05-07 17:09 | 41.12335 | 0.65937 | 26801 ft | 452 kts | 22° |
| 2026-05-07 17:09 | 41.15225 | 0.67554 | 27165 ft | 450 kts | 13° |
| 2026-05-07 17:09 | 41.18227 | 0.68763 | 27507 ft | 452 kts | 11° |
| 2026-05-07 17:09 | 41.21263 | 0.69907 | 27915 ft | 454 kts | 11° |
| 2026-05-07 17:10 | 41.24309 | 0.71039 | 28335 ft | 456 kts | 11° |
| 2026-05-07 17:10 | 41.27371 | 0.72186 | 28695 ft | 459 kts | 11° |
| 2026-05-07 17:10 | 41.30456 | 0.73358 | 29030 ft | 463 kts | 11° |
| 2026-05-07 17:10 | 41.33555 | 0.74552 | 29397 ft | 465 kts | 11° |
| 2026-05-07 17:11 | 41.36675 | 0.75766 | 29745 ft | 468 kts | 11° |
| 2026-05-07 17:11 | 41.39800 | 0.76990 | 30063 ft | 470 kts | 12° |
| 2026-05-07 17:11 | 41.42953 | 0.78228 | 30322 ft | 473 kts | 12° |
| 2026-05-07 17:11 | 41.46115 | 0.79471 | 30605 ft | 475 kts | 12° |
| 2026-05-07 17:12 | 41.49283 | 0.80719 | 30932 ft | 475 kts | 12° |
| 2026-05-07 17:12 | 41.52450 | 0.81967 | 31304 ft | 474 kts | 12° |
| 2026-05-07 17:12 | 41.55615 | 0.83215 | 31686 ft | 474 kts | 12° |
| 2026-05-07 17:12 | 41.58775 | 0.84462 | 32046 ft | 473 kts | 12° |
| 2026-05-07 17:13 | 41.60863 | 0.85286 | 32266 ft | 473 kts | 12° |
| 2026-05-07 17:13 | 41.65089 | 0.86954 | 32722 ft | 473 kts | 12° |
| 2026-05-07 17:13 | 41.67176 | 0.87779 | 32942 ft | 473 kts | 12° |
| 2026-05-07 17:13 | 41.71352 | 0.89432 | 33439 ft | 472 kts | 12° |
| 2026-05-07 17:14 | 41.74493 | 0.90677 | 33787 ft | 471 kts | 12° |
| 2026-05-07 17:14 | 41.77638 | 0.91923 | 34077 ft | 471 kts | 12° |
| 2026-05-07 17:14 | 41.80774 | 0.93168 | 34360 ft | 470 kts | 12° |
| 2026-05-07 17:14 | 41.83911 | 0.94415 | 34657 ft | 469 kts | 12° |
| 2026-05-07 17:15 | 41.86023 | 0.95255 | 34859 ft | 468 kts | 12° |
| 2026-05-07 17:15 | 41.89144 | 0.96498 | 35137 ft | 467 kts | 12° |
| 2026-05-07 17:15 | 41.92254 | 0.97738 | 35417 ft | 466 kts | 12° |
| 2026-05-07 17:15 | 41.95369 | 0.98980 | 35646 ft | 467 kts | 12° |
| 2026-05-07 17:16 | 41.98486 | 1.00224 | 35880 ft | 467 kts | 12° |
| 2026-05-07 17:16 | 42.01609 | 1.01472 | 35931 ft | 470 kts | 12° |
| 2026-05-07 17:16 | 42.07895 | 1.03988 | 35934 ft | 471 kts | 12° |
| 2026-05-07 17:17 | 42.14183 | 1.06139 | 35938 ft | 459 kts | 2° |
| 2026-05-07 17:17 | 42.20426 | 1.06103 | 35956 ft | 450 kts | 349° |
| 2026-05-07 17:18 | 42.26695 | 1.05302 | 35953 ft | 450 kts | 349° |
| 2026-05-07 17:18 | 42.32897 | 1.04567 | 35950 ft | 451 kts | 350° |
| 2026-05-07 17:19 | 42.39150 | 1.03878 | 35933 ft | 451 kts | 350° |
| 2026-05-07 17:19 | 42.45404 | 1.03192 | 35937 ft | 451 kts | 350° |
| 2026-05-07 17:20 | 42.51649 | 1.02516 | 35947 ft | 450 kts | 351° |
| 2026-05-07 17:20 | 42.57885 | 1.01843 | 35940 ft | 449 kts | 350° |
| 2026-05-07 17:21 | 42.64108 | 1.01164 | 35955 ft | 448 kts | 351° |
| 2026-05-07 17:21 | 42.70325 | 1.00486 | 35948 ft | 449 kts | 350° |
| 2026-05-07 17:22 | 42.76567 | 0.99802 | 35937 ft | 450 kts | 351° |
| 2026-05-07 17:22 | 42.82811 | 0.99116 | 35970 ft | 451 kts | 351° |
| 2026-05-07 17:23 | 42.89076 | 0.98426 | 35941 ft | 452 kts | 351° |
| 2026-05-07 17:23 | 42.95347 | 0.97740 | 35946 ft | 452 kts | 351° |
| 2026-05-07 17:24 | 43.01627 | 0.97051 | 35940 ft | 453 kts | 351° |
| 2026-05-07 17:24 | 43.04771 | 0.96704 | 35837 ft | 455 kts | 352° |
| 2026-05-07 17:24 | 43.07935 | 0.96353 | 35905 ft | 458 kts | 352° |
| 2026-05-07 17:25 | 43.14335 | 0.95644 | 35929 ft | 464 kts | 352° |
| 2026-05-07 17:25 | 43.20777 | 0.94930 | 35936 ft | 466 kts | 352° |
| 2026-05-07 17:26 | 43.27205 | 0.94218 | 35934 ft | 466 kts | 352° |
| 2026-05-07 17:26 | 43.33603 | 0.93510 | 35915 ft | 456 kts | 352° |
| 2026-05-07 17:27 | 43.39927 | 0.92804 | 35931 ft | 456 kts | 352° |
| 2026-05-07 17:27 | 43.46249 | 0.92096 | 35932 ft | 456 kts | 352° |
| 2026-05-07 17:28 | 43.52583 | 0.91386 | 35937 ft | 456 kts | 352° |
| 2026-05-07 17:28 | 43.58918 | 0.90674 | 35931 ft | 457 kts | 352° |
| 2026-05-07 17:29 | 43.65256 | 0.89962 | 35934 ft | 458 kts | 352° |
| 2026-05-07 17:29 | 43.71605 | 0.89246 | 35930 ft | 458 kts | 352° |
| 2026-05-07 17:30 | 43.77956 | 0.88529 | 35931 ft | 458 kts | 352° |
| 2026-05-07 17:30 | 43.84310 | 0.87810 | 35934 ft | 458 kts | 352° |
| 2026-05-07 17:31 | 43.90523 | 0.86240 | 35935 ft | 451 kts | 336° |
| 2026-05-07 17:31 | 43.96204 | 0.82710 | 35939 ft | 447 kts | 330° |
| 2026-05-07 17:32 | 44.01524 | 0.79164 | 35931 ft | 447 kts | 330° |
| 2026-05-07 17:32 | 44.05111 | 0.76800 | 35939 ft | 447 kts | 331° |
| 2026-05-07 17:33 | 44.10346 | 0.73388 | 35941 ft | 447 kts | 331° |
| 2026-05-07 17:34 | 44.15948 | 0.69754 | 35940 ft | 447 kts | 331° |
| 2026-05-07 17:34 | 44.21582 | 0.66093 | 35941 ft | 447 kts | 331° |
| 2026-05-07 17:35 | 44.27220 | 0.62420 | 35936 ft | 447 kts | 331° |
| 2026-05-07 17:35 | 44.32857 | 0.58738 | 35941 ft | 447 kts | 331° |
| 2026-05-07 17:36 | 44.38491 | 0.55050 | 35934 ft | 447 kts | 331° |
| 2026-05-07 17:36 | 44.44121 | 0.51358 | 35937 ft | 447 kts | 331° |
| 2026-05-07 17:37 | 44.49742 | 0.47642 | 35930 ft | 447 kts | 330° |
| 2026-05-07 17:37 | 44.55365 | 0.43905 | 35934 ft | 447 kts | 330° |
| 2026-05-07 17:38 | 44.60978 | 0.40167 | 35934 ft | 447 kts | 330° |
| 2026-05-07 17:38 | 44.66597 | 0.36420 | 35939 ft | 447 kts | 330° |
| 2026-05-07 17:39 | 44.72217 | 0.32664 | 35940 ft | 447 kts | 330° |
| 2026-05-07 17:39 | 44.77830 | 0.28905 | 35941 ft | 447 kts | 330° |
| 2026-05-07 17:40 | 44.82610 | 0.25698 | 35937 ft | 447 kts | 330° |
| 2026-05-07 17:40 | 44.88222 | 0.21924 | 35936 ft | 447 kts | 330° |
| 2026-05-07 17:41 | 44.93831 | 0.18144 | 35938 ft | 447 kts | 330° |
| 2026-05-07 17:41 | 44.99438 | 0.14357 | 35939 ft | 447 kts | 330° |
| 2026-05-07 17:42 | 45.05045 | 0.10563 | 35933 ft | 447 kts | 330° |
| 2026-05-07 17:42 | 45.10649 | 0.06766 | 35933 ft | 446 kts | 330° |
| 2026-05-07 17:43 | 45.16249 | 0.02964 | 35931 ft | 446 kts | 330° |
| 2026-05-07 17:43 | 45.21844 | -0.00843 | 35936 ft | 446 kts | 330° |
| 2026-05-07 17:44 | 45.27438 | -0.04660 | 35932 ft | 446 kts | 330° |
| 2026-05-07 17:44 | 45.33027 | -0.08481 | 35936 ft | 446 kts | 330° |
| 2026-05-07 17:45 | 45.38614 | -0.12309 | 35936 ft | 446 kts | 330° |
| 2026-05-07 17:45 | 45.44196 | -0.16142 | 35939 ft | 446 kts | 330° |
| 2026-05-07 17:46 | 45.49780 | -0.19986 | 35940 ft | 445 kts | 330° |
| 2026-05-07 17:46 | 45.55357 | -0.23833 | 35941 ft | 445 kts | 330° |
| 2026-05-07 17:47 | 45.60935 | -0.27689 | 35940 ft | 445 kts | 330° |
| 2026-05-07 17:47 | 45.66531 | -0.31492 | 35937 ft | 447 kts | 334° |
| 2026-05-07 17:48 | 45.72455 | -0.34314 | 35938 ft | 450 kts | 339° |
| 2026-05-07 17:48 | 45.78447 | -0.36892 | 35939 ft | 450 kts | 339° |
| 2026-05-07 17:49 | 45.84428 | -0.39524 | 35943 ft | 449 kts | 339° |
| 2026-05-07 17:49 | 45.90394 | -0.42213 | 35943 ft | 449 kts | 339° |
| 2026-05-07 17:50 | 45.96312 | -0.44906 | 35941 ft | 449 kts | 339° |
| 2026-05-07 17:50 | 46.02272 | -0.47624 | 35946 ft | 449 kts | 339° |
| 2026-05-07 17:51 | 46.08226 | -0.50343 | 35948 ft | 449 kts | 338° |
| 2026-05-07 17:51 | 46.14185 | -0.53070 | 35954 ft | 449 kts | 339° |
| 2026-05-07 17:52 | 46.20140 | -0.55802 | 35953 ft | 449 kts | 339° |
| 2026-05-07 17:52 | 46.26091 | -0.58537 | 35951 ft | 449 kts | 339° |
| 2026-05-07 17:53 | 46.32055 | -0.61285 | 35952 ft | 449 kts | 339° |
| 2026-05-07 17:53 | 46.38008 | -0.64035 | 35958 ft | 449 kts | 338° |
| 2026-05-07 17:54 | 46.44016 | -0.66580 | 35944 ft | 453 kts | 347° |
| 2026-05-07 17:54 | 46.50288 | -0.67710 | 35951 ft | 455 kts | 351° |
| 2026-05-07 17:55 | 46.56575 | -0.68657 | 35958 ft | 454 kts | 351° |
| 2026-05-07 17:55 | 46.62867 | -0.69654 | 35959 ft | 454 kts | 350° |
| 2026-05-07 17:56 | 46.69107 | -0.70692 | 35956 ft | 454 kts | 350° |
| 2026-05-07 17:56 | 46.75384 | -0.71755 | 35958 ft | 454 kts | 350° |
| 2026-05-07 17:57 | 46.80643 | -0.72647 | 35959 ft | 454 kts | 350° |
| 2026-05-07 17:57 | 46.87934 | -0.73886 | 35962 ft | 454 kts | 350° |
| 2026-05-07 17:58 | 46.94205 | -0.74952 | 35965 ft | 453 kts | 350° |
| 2026-05-07 17:58 | 47.00473 | -0.76021 | 35957 ft | 453 kts | 350° |
| 2026-05-07 17:59 | 47.06738 | -0.77091 | 35966 ft | 453 kts | 350° |
| 2026-05-07 17:59 | 47.13001 | -0.78164 | 35964 ft | 453 kts | 350° |
| 2026-05-07 18:00 | 47.19264 | -0.79240 | 35962 ft | 453 kts | 350° |
| 2026-05-07 18:00 | 47.25477 | -0.80309 | 35964 ft | 453 kts | 350° |
| 2026-05-07 18:01 | 47.31731 | -0.81388 | 35957 ft | 452 kts | 350° |
| 2026-05-07 18:01 | 47.37982 | -0.82469 | 35965 ft | 452 kts | 350° |
| 2026-05-07 18:02 | 47.47344 | -0.84094 | 35964 ft | 452 kts | 350° |
| 2026-05-07 18:03 | 47.52538 | -0.84997 | 35963 ft | 452 kts | 350° |
| 2026-05-07 18:03 | 47.58801 | -0.85932 | 35964 ft | 453 kts | 352° |
| 2026-05-07 18:04 | 47.65079 | -0.86652 | 35969 ft | 453 kts | 353° |
| 2026-05-07 18:04 | 47.71357 | -0.87369 | 35976 ft | 452 kts | 352° |
| 2026-05-07 18:05 | 47.77633 | -0.88118 | 35982 ft | 452 kts | 352° |
| 2026-05-07 18:05 | 47.83905 | -0.88886 | 35985 ft | 452 kts | 352° |
| 2026-05-07 18:06 | 47.90173 | -0.89658 | 35988 ft | 452 kts | 352° |
| 2026-05-07 18:06 | 47.96432 | -0.90431 | 35990 ft | 451 kts | 352° |
| 2026-05-07 18:07 | 48.02682 | -0.91204 | 35994 ft | 451 kts | 352° |
| 2026-05-07 18:07 | 48.08933 | -0.91979 | 35993 ft | 450 kts | 352° |
| 2026-05-07 18:08 | 48.15166 | -0.92753 | 35990 ft | 449 kts | 353° |
| 2026-05-07 18:08 | 48.21396 | -0.93529 | 35990 ft | 449 kts | 353° |
| 2026-05-07 18:09 | 48.27615 | -0.94305 | 35990 ft | 448 kts | 353° |
| 2026-05-07 18:09 | 48.33843 | -0.95085 | 35990 ft | 448 kts | 353° |
| 2026-05-07 18:10 | 48.40002 | -0.95857 | 35993 ft | 448 kts | 353° |
| 2026-05-07 18:10 | 48.46207 | -0.96638 | 35992 ft | 448 kts | 353° |
| 2026-05-07 18:11 | 48.52413 | -0.97420 | 35996 ft | 447 kts | 353° |
| 2026-05-07 18:11 | 48.58613 | -0.98204 | 35995 ft | 447 kts | 353° |
| 2026-05-07 18:12 | 48.64814 | -0.98989 | 36002 ft | 447 kts | 353° |
| 2026-05-07 18:12 | 48.71015 | -0.99777 | 35998 ft | 447 kts | 353° |
| 2026-05-07 18:13 | 48.77219 | -1.00567 | 36001 ft | 447 kts | 353° |
| 2026-05-07 18:13 | 48.83423 | -1.01359 | 36002 ft | 447 kts | 353° |
| 2026-05-07 18:14 | 48.89635 | -1.02153 | 35997 ft | 447 kts | 353° |
| 2026-05-07 18:14 | 48.95838 | -1.02949 | 36005 ft | 447 kts | 353° |
| 2026-05-07 18:15 | 49.02041 | -1.03747 | 36002 ft | 448 kts | 353° |
| 2026-05-07 18:15 | 49.08250 | -1.04547 | 36012 ft | 448 kts | 353° |
| 2026-05-07 18:16 | 49.14460 | -1.05350 | 36005 ft | 448 kts | 353° |
| 2026-05-07 18:16 | 49.20672 | -1.06154 | 36014 ft | 448 kts | 353° |
| 2026-05-07 18:17 | 49.26882 | -1.06961 | 36017 ft | 448 kts | 353° |
| 2026-05-07 18:17 | 49.33085 | -1.07769 | 36012 ft | 448 kts | 353° |
| 2026-05-07 18:18 | 49.39295 | -1.08579 | 36017 ft | 448 kts | 353° |
| 2026-05-07 18:18 | 49.45500 | -1.09392 | 36015 ft | 447 kts | 353° |
| 2026-05-07 18:19 | 49.51676 | -1.10201 | 36005 ft | 441 kts | 353° |
| 2026-05-07 18:19 | 49.57756 | -1.10049 | 36023 ft | 441 kts | 13° |
| 2026-05-07 18:19 | 49.60643 | -1.08451 | 35991 ft | 443 kts | 26° |
| 2026-05-07 18:20 | 49.63238 | -1.05854 | 35653 ft | 445 kts | 38° |
| 2026-05-07 18:20 | 49.65595 | -1.02925 | 35310 ft | 440 kts | 39° |
| 2026-05-07 18:20 | 49.67994 | -0.99917 | 34918 ft | 436 kts | 38° |
| 2026-05-07 18:20 | 49.70369 | -0.97030 | 34541 ft | 433 kts | 37° |
| 2026-05-07 18:21 | 49.72764 | -0.94218 | 34159 ft | 430 kts | 33° |
| 2026-05-07 18:21 | 49.74961 | -0.92276 | 33782 ft | 427 kts | 23° |
| 2026-05-07 18:21 | 49.77728 | -0.90675 | 33366 ft | 423 kts | 14° |
| 2026-05-07 18:21 | 49.80591 | -0.89817 | 32952 ft | 417 kts | 4° |
| 2026-05-07 18:22 | 49.83467 | -0.89415 | 32593 ft | 413 kts | 2° |
| 2026-05-07 18:22 | 49.85357 | -0.89188 | 32331 ft | 411 kts | 2° |
| 2026-05-07 18:22 | 49.89151 | -0.88726 | 31838 ft | 407 kts | 3° |
| 2026-05-07 18:22 | 49.91966 | -0.88353 | 31474 ft | 404 kts | 3° |
| 2026-05-07 18:23 | 49.94752 | -0.87961 | 31116 ft | 401 kts | 3° |
| 2026-05-07 18:23 | 49.97519 | -0.87562 | 30763 ft | 398 kts | 4° |
| 2026-05-07 18:23 | 50.00271 | -0.87163 | 30409 ft | 396 kts | 4° |
| 2026-05-07 18:23 | 50.03004 | -0.86772 | 30090 ft | 392 kts | 3° |
| 2026-05-07 18:24 | 50.05712 | -0.86389 | 29684 ft | 389 kts | 3° |
| 2026-05-07 18:24 | 50.08396 | -0.86010 | 29330 ft | 385 kts | 3° |
| 2026-05-07 18:24 | 50.11055 | -0.85635 | 28950 ft | 382 kts | 3° |
| 2026-05-07 18:24 | 50.13688 | -0.85262 | 28581 ft | 379 kts | 3° |
| 2026-05-07 18:25 | 50.16300 | -0.84892 | 28228 ft | 375 kts | 3° |
| 2026-05-07 18:25 | 50.18889 | -0.84525 | 27856 ft | 372 kts | 3° |
| 2026-05-07 18:25 | 50.21457 | -0.84160 | 27497 ft | 370 kts | 3° |
| 2026-05-07 18:25 | 50.24009 | -0.83797 | 27140 ft | 367 kts | 3° |
| 2026-05-07 18:26 | 50.26546 | -0.83436 | 26791 ft | 364 kts | 3° |
| 2026-05-07 18:26 | 50.29059 | -0.83077 | 26440 ft | 362 kts | 3° |
| 2026-05-07 18:26 | 50.31563 | -0.82720 | 26097 ft | 360 kts | 3° |
| 2026-05-07 18:26 | 50.34015 | -0.82367 | 25758 ft | 358 kts | 3° |
| 2026-05-07 18:27 | 50.36520 | -0.82001 | 25416 ft | 356 kts | 3° |
| 2026-05-07 18:27 | 50.38940 | -0.81647 | 25080 ft | 354 kts | 3° |
| 2026-05-07 18:27 | 50.41392 | -0.81287 | 24742 ft | 353 kts | 3° |
| 2026-05-07 18:27 | 50.43830 | -0.80929 | 24400 ft | 351 kts | 3° |
| 2026-05-07 18:28 | 50.46262 | -0.80573 | 24058 ft | 350 kts | 3° |
| 2026-05-07 18:28 | 50.48677 | -0.80218 | 23727 ft | 349 kts | 3° |
| 2026-05-07 18:28 | 50.51096 | -0.79863 | 23327 ft | 348 kts | 3° |
| 2026-05-07 18:28 | 50.53501 | -0.79509 | 22957 ft | 346 kts | 3° |
| 2026-05-07 18:29 | 50.55895 | -0.79156 | 22597 ft | 344 kts | 3° |
| 2026-05-07 18:29 | 50.58270 | -0.78806 | 22254 ft | 342 kts | 3° |
| 2026-05-07 18:29 | 50.60628 | -0.78458 | 21916 ft | 340 kts | 3° |
| 2026-05-07 18:29 | 50.62974 | -0.78114 | 21588 ft | 337 kts | 3° |
| 2026-05-07 18:30 | 50.65306 | -0.77778 | 21264 ft | 335 kts | 3° |
| 2026-05-07 18:30 | 50.67619 | -0.77446 | 20935 ft | 333 kts | 3° |
| 2026-05-07 18:30 | 50.69917 | -0.77116 | 20614 ft | 331 kts | 3° |
| 2026-05-07 18:30 | 50.72207 | -0.76786 | 20289 ft | 329 kts | 3° |
| 2026-05-07 18:31 | 50.74483 | -0.76458 | 19975 ft | 328 kts | 3° |
| 2026-05-07 18:31 | 50.76750 | -0.76130 | 19655 ft | 326 kts | 3° |
| 2026-05-07 18:31 | 50.79003 | -0.75804 | 19340 ft | 325 kts | 3° |
| 2026-05-07 18:31 | 50.81247 | -0.75395 | 19029 ft | 324 kts | 12° |
| 2026-05-07 18:32 | 50.83362 | -0.74231 | 18867 ft | 321 kts | 20° |
| 2026-05-07 18:32 | 50.85446 | -0.72875 | 18687 ft | 327 kts | 21° |
| 2026-05-07 18:32 | 50.87562 | -0.71469 | 18502 ft | 333 kts | 21° |
| 2026-05-07 18:32 | 50.89706 | -0.70047 | 18300 ft | 334 kts | 21° |
| 2026-05-07 18:33 | 50.91849 | -0.68634 | 18070 ft | 332 kts | 21° |
| 2026-05-07 18:33 | 50.93975 | -0.67242 | 17864 ft | 329 kts | 21° |
| 2026-05-07 18:33 | 50.96081 | -0.65869 | 17654 ft | 326 kts | 21° |
| 2026-05-07 18:33 | 50.98168 | -0.64511 | 17475 ft | 323 kts | 21° |
| 2026-05-07 18:34 | 51.00243 | -0.63164 | 17297 ft | 321 kts | 21° |
| 2026-05-07 18:34 | 51.02308 | -0.61823 | 17112 ft | 320 kts | 21° |
| 2026-05-07 18:34 | 51.04368 | -0.60486 | 16930 ft | 319 kts | 21° |
| 2026-05-07 18:34 | 51.06423 | -0.59152 | 16760 ft | 319 kts | 21° |
| 2026-05-07 18:35 | 51.08478 | -0.57816 | 16570 ft | 319 kts | 21° |
| 2026-05-07 18:35 | 51.10535 | -0.56479 | 16393 ft | 320 kts | 21° |
| 2026-05-07 18:35 | 51.12603 | -0.55132 | 16212 ft | 321 kts | 21° |
| 2026-05-07 18:35 | 51.14669 | -0.53785 | 16025 ft | 322 kts | 21° |
| 2026-05-07 18:36 | 51.16737 | -0.52436 | 15842 ft | 320 kts | 21° |
| 2026-05-07 18:36 | 51.18795 | -0.51092 | 15658 ft | 319 kts | 21° |
| 2026-05-07 18:36 | 51.20841 | -0.49754 | 15469 ft | 318 kts | 21° |
| 2026-05-07 18:36 | 51.22887 | -0.48415 | 15298 ft | 317 kts | 21° |
| 2026-05-07 18:37 | 51.24899 | -0.47097 | 15111 ft | 316 kts | 21° |
| 2026-05-07 18:37 | 51.26954 | -0.45750 | 14936 ft | 315 kts | 21° |
| 2026-05-07 18:37 | 51.28956 | -0.44436 | 14755 ft | 315 kts | 21° |
| 2026-05-07 18:37 | 51.30972 | -0.43112 | 14576 ft | 314 kts | 22° |
| 2026-05-07 18:38 | 51.33009 | -0.41772 | 14397 ft | 314 kts | 22° |
| 2026-05-07 18:38 | 51.35013 | -0.40453 | 14220 ft | 313 kts | 22° |
| 2026-05-07 18:38 | 51.37027 | -0.39127 | 14044 ft | 313 kts | 22° |
| 2026-05-07 18:38 | 51.39038 | -0.37801 | 13854 ft | 312 kts | 22° |
| 2026-05-07 18:39 | 51.41047 | -0.36475 | 13664 ft | 312 kts | 22° |
| 2026-05-07 18:39 | 51.43046 | -0.35155 | 13473 ft | 311 kts | 22° |
| 2026-05-07 18:39 | 51.45023 | -0.33763 | 13284 ft | 310 kts | 25° |
| 2026-05-07 18:39 | 51.46967 | -0.32285 | 13085 ft | 309 kts | 25° |
| 2026-05-07 18:40 | 51.48919 | -0.30773 | 12725 ft | 313 kts | 26° |
| 2026-05-07 18:40 | 51.50880 | -0.29252 | 12340 ft | 313 kts | 25° |
| 2026-05-07 18:40 | 51.52840 | -0.27736 | 11957 ft | 313 kts | 25° |
| 2026-05-07 18:40 | 51.54805 | -0.26221 | 11577 ft | 313 kts | 25° |
| 2026-05-07 18:41 | 51.56765 | -0.24710 | 11195 ft | 313 kts | 25° |
| 2026-05-07 18:41 | 51.58723 | -0.23185 | 10831 ft | 313 kts | 26° |
| 2026-05-07 18:41 | 51.60677 | -0.21654 | 10492 ft | 312 kts | 26° |
| 2026-05-07 18:41 | 51.62621 | -0.20122 | 10113 ft | 308 kts | 26° |
| 2026-05-07 18:42 | 51.64506 | -0.18632 | 9834 ft | 297 kts | 26° |
| 2026-05-07 18:42 | 51.66330 | -0.17187 | 9545 ft | 287 kts | 26° |
| 2026-05-07 18:42 | 51.68101 | -0.15780 | 9278 ft | 281 kts | 26° |
| 2026-05-07 18:42 | 51.69851 | -0.14389 | 9011 ft | 281 kts | 26° |
| 2026-05-07 18:43 | 51.71519 | -0.13060 | 8751 ft | 286 kts | 26° |
| 2026-05-07 18:43 | 51.73317 | -0.11624 | 8438 ft | 291 kts | 26° |
| 2026-05-07 18:43 | 51.75131 | -0.10168 | 8140 ft | 291 kts | 26° |
| 2026-05-07 18:43 | 51.76938 | -0.08713 | 7827 ft | 289 kts | 26° |
| 2026-05-07 18:44 | 51.78771 | -0.07449 | 7505 ft | 286 kts | 12° |
| 2026-05-07 18:44 | 51.80719 | -0.06881 | 7219 ft | 283 kts | 7° |
| 2026-05-07 18:44 | 51.82663 | -0.06442 | 6922 ft | 281 kts | 6° |
| 2026-05-07 18:44 | 51.84597 | -0.06017 | 6622 ft | 280 kts | 6° |
| 2026-05-07 18:45 | 51.86521 | -0.05589 | 6318 ft | 278 kts | 6° |
| 2026-05-07 18:45 | 51.88434 | -0.05162 | 5995 ft | 277 kts | 6° |
| 2026-05-07 18:45 | 51.90321 | -0.05308 | 5652 ft | 271 kts | 338° |
| 2026-05-07 18:45 | 51.91782 | -0.07018 | 5337 ft | 256 kts | 303° |
| 2026-05-07 18:46 | 51.92316 | -0.09630 | 5072 ft | 243 kts | 267° |
| 2026-05-07 18:46 | 51.91780 | -0.12115 | 4800 ft | 234 kts | 231° |
| 2026-05-07 18:46 | 51.90618 | -0.13889 | 4556 ft | 226 kts | 221° |
| 2026-05-07 18:46 | 51.89432 | -0.15546 | 4298 ft | 224 kts | 221° |
| 2026-05-07 18:47 | 51.88260 | -0.17183 | 4069 ft | 220 kts | 219° |
| 2026-05-07 18:47 | 51.86896 | -0.18158 | 3793 ft | 217 kts | 182° |
| 2026-05-07 18:47 | 51.85926 | -0.17856 | 3642 ft | 215 kts | 155° |
| 2026-05-07 18:47 | 51.84524 | -0.15656 | 3319 ft | 213 kts | 131° |
| 2026-05-07 18:48 | 51.83582 | -0.13802 | 3081 ft | 213 kts | 131° |
| 2026-05-07 18:48 | 51.82652 | -0.11968 | 3017 ft | 209 kts | 131° |
| 2026-05-07 18:48 | 51.81743 | -0.10169 | 2986 ft | 204 kts | 130° |
| 2026-05-07 18:48 | 51.80870 | -0.08428 | 2970 ft | 193 kts | 130° |
| 2026-05-07 18:49 | 51.80052 | -0.06791 | 2974 ft | 183 kts | 131° |
| 2026-05-07 18:49 | 51.79525 | -0.05732 | 2973 ft | 182 kts | 131° |
| 2026-05-07 18:49 | 51.78730 | -0.04131 | 2982 ft | 179 kts | 131° |
| 2026-05-07 18:49 | 51.77962 | -0.02574 | 2996 ft | 178 kts | 130° |
| 2026-05-07 18:50 | 51.77197 | -0.01031 | 2999 ft | 178 kts | 130° |
| 2026-05-07 18:50 | 51.76441 | 0.00503 | 2956 ft | 172 kts | 128° |
| 2026-05-07 18:50 | 51.76142 | 0.02334 | 2749 ft | 175 kts | 82° |
| 2026-05-07 18:50 | 51.76427 | 0.04239 | 2657 ft | 176 kts | 78° |
| 2026-05-07 18:51 | 51.77020 | 0.05943 | 2513 ft | 176 kts | 48° |
| 2026-05-07 18:51 | 51.77870 | 0.07356 | 2497 ft | 176 kts | 50° |
| 2026-05-07 18:51 | 51.78743 | 0.08764 | 2505 ft | 175 kts | 47° |
| 2026-05-07 18:51 | 51.79625 | 0.10113 | 2491 ft | 173 kts | 46° |
| 2026-05-07 18:52 | 51.80498 | 0.11430 | 2361 ft | 176 kts | 46° |
| 2026-05-07 18:52 | 51.81396 | 0.12781 | 2124 ft | 175 kts | 47° |
| 2026-05-07 18:52 | 51.82272 | 0.14101 | 1887 ft | 168 kts | 48° |
| 2026-05-07 18:52 | 51.83087 | 0.15329 | 1655 ft | 154 kts | 47° |
| 2026-05-07 18:53 | 51.83863 | 0.16501 | 1467 ft | 153 kts | 48° |
| 2026-05-07 18:53 | 51.84646 | 0.17674 | 1243 ft | 155 kts | 47° |
| 2026-05-07 18:53 | 51.85432 | 0.18860 | 1004 ft | 152 kts | 49° |
| 2026-05-07 18:53 | 51.86188 | 0.20005 | 781 ft | 147 kts | 46° |
| 2026-05-07 18:54 | 51.86933 | 0.21120 | 568 ft | 145 kts | 47° |
| 2026-05-07 18:54 | 51.87665 | 0.22223 | 390 ft | 143 kts | 47° |
| 2026-05-07 18:54 | 51.88358 | 0.23269 | 336 ft | 120 kts | 41° |
| 2026-05-07 18:54 | 51.88773 | 0.23894 | 333 ft | 47 kts | 49° |
| 2026-05-07 18:55 | 51.88888 | 0.24270 | 339 ft | 20 kts | 73° |
| 2026-05-07 18:55 | 51.88920 | 0.24448 | 353 ft | 2 kts | 79° |
| 2026-05-07 18:58 | 51.88921 | 0.24454 | 352 ft | 3 kts | 82° |
| 2026-05-07 18:58 | 51.88906 | 0.24537 | 350 ft | 13 kts | 96° |
| 2026-05-07 18:58 | 51.88982 | 0.24689 | 348 ft | 23 kts | 41° |
| 2026-05-07 18:58 | 51.89111 | 0.24881 | 351 ft | 25 kts | 43° |
| 2026-05-07 18:59 | 51.89226 | 0.25080 | 351 ft | 23 kts | 58° |
| 2026-05-07 18:59 | 51.89319 | 0.25280 | 348 ft | 15 kts | 41° |
| 2026-05-07 18:59 | 51.89398 | 0.25381 | 348 ft | 15 kts | 43° |
| 2026-05-07 18:59 | 51.89388 | 0.25524 | 353 ft | 15 kts | 141° |
| 2026-05-07 19:00 | 51.89308 | 0.25626 | 348 ft | 15 kts | 133° |
| 2026-05-07 19:00 | 51.89229 | 0.25764 | 351 ft | 17 kts | 133° |
| 2026-05-07 19:00 | 51.89192 | 0.25787 | 353 ft | 2 kts | 194° |
| 2026-05-07 19:00 | 51.89177 | 0.25762 | 349 ft | 1 kts | 230° |
| 2026-05-07 19:01 | 51.89172 | 0.25753 | 350 ft | 1 kts | 226° |
| 2026-05-07 19:01 | 51.89164 | 0.25741 | 348 ft | 0 kts | 224° |